sensor_id;sensor_type;location;lat;lon;timestamp;temperature;humidity
19403;DHT22;9837;48.888;8.998;2023-05-16T00:01:56;17.50;65.70
19403;DHT22;9837;48.888;8.998;2023-05-16T00:04:21;17.60;65.60
19403;DHT22;9837;48.888;8.998;2023-05-16T00:06:47;17.60;66.30
19403;DHT22;9837;48.888;8.998;2023-05-16T00:09:13;17.70;65.20
19403;DHT22;9837;48.888;8.998;2023-05-16T00:11:39;17.70;65.90
19403;DHT22;9837;48.888;8.998;2023-05-16T00:14:04;17.60;65.20
19403;DHT22;9837;48.888;8.998;2023-05-16T00:16:30;17.60;65.00
19403;DHT22;9837;48.888;8.998;2023-05-16T00:18:55;17.60;65.20
19403;DHT22;9837;48.888;8.998;2023-05-16T00:23:51;17.60;65.00
19403;DHT22;9837;48.888;8.998;2023-05-16T00:26:17;17.60;65.10
19403;DHT22;9837;48.888;8.998;2023-05-16T00:28:43;17.50;65.00
19403;DHT22;9837;48.888;8.998;2023-05-16T00:31:08;17.60;64.90
19403;DHT22;9837;48.888;8.998;2023-05-16T00:33:34;17.50;64.60
19403;DHT22;9837;48.888;8.998;2023-05-16T00:36:00;17.50;64.70
19403;DHT22;9837;48.888;8.998;2023-05-16T00:38:25;17.40;64.70
19403;DHT22;9837;48.888;8.998;2023-05-16T00:43:17;17.40;64.80
19403;DHT22;9837;48.888;8.998;2023-05-16T00:45:42;17.40;65.60
19403;DHT22;9837;48.888;8.998;2023-05-16T00:48:09;17.30;65.20
19403;DHT22;9837;48.888;8.998;2023-05-16T00:50:36;17.10;65.80
19403;DHT22;9837;48.888;8.998;2023-05-16T00:53:01;16.80;66.70
19403;DHT22;9837;48.888;8.998;2023-05-16T00:55:27;16.60;67.70
19403;DHT22;9837;48.888;8.998;2023-05-16T00:57:53;16.50;68.40
19403;DHT22;9837;48.888;8.998;2023-05-16T01:00:19;16.60;69.10
19403;DHT22;9837;48.888;8.998;2023-05-16T01:02:45;16.40;68.70
19403;DHT22;9837;48.888;8.998;2023-05-16T01:05:11;16.40;69.40
19403;DHT22;9837;48.888;8.998;2023-05-16T01:07:37;16.30;69.50
19403;DHT22;9837;48.888;8.998;2023-05-16T01:10:05;16.30;69.50
19403;DHT22;9837;48.888;8.998;2023-05-16T01:12:55;16.30;70.10
19403;DHT22;9837;48.888;8.998;2023-05-16T01:15:28;16.50;69.70
19403;DHT22;9837;48.888;8.998;2023-05-16T01:18:14;16.50;68.60
19403;DHT22;9837;48.888;8.998;2023-05-16T01:23:22;16.50;68.30
19403;DHT22;9837;48.888;8.998;2023-05-16T01:28:33;16.40;68.70
19403;DHT22;9837;48.888;8.998;2023-05-16T01:30:59;16.30;68.80
19403;DHT22;9837;48.888;8.998;2023-05-16T01:33:24;16.30;69.30
19403;DHT22;9837;48.888;8.998;2023-05-16T01:38:48;16.30;69.00
19403;DHT22;9837;48.888;8.998;2023-05-16T01:41:24;16.30;68.80
19403;DHT22;9837;48.888;8.998;2023-05-16T01:43:57;16.30;68.80
19403;DHT22;9837;48.888;8.998;2023-05-16T01:46:26;16.30;68.80
19403;DHT22;9837;48.888;8.998;2023-05-16T01:49:37;16.30;69.00
19403;DHT22;9837;48.888;8.998;2023-05-16T01:52:05;16.40;68.80
19403;DHT22;9837;48.888;8.998;2023-05-16T01:54:32;16.30;69.00
19403;DHT22;9837;48.888;8.998;2023-05-16T01:56:59;16.30;69.80
19403;DHT22;9837;48.888;8.998;2023-05-16T01:59:26;16.20;69.50
19403;DHT22;9837;48.888;8.998;2023-05-16T02:01:53;16.20;69.70
19403;DHT22;9837;48.888;8.998;2023-05-16T02:04:19;16.20;69.70
19403;DHT22;9837;48.888;8.998;2023-05-16T02:06:45;16.20;70.30
19403;DHT22;9837;48.888;8.998;2023-05-16T02:09:10;16.00;70.20
19403;DHT22;9837;48.888;8.998;2023-05-16T02:11:36;15.90;70.80
19403;DHT22;9837;48.888;8.998;2023-05-16T02:14:02;15.80;71.40
19403;DHT22;9837;48.888;8.998;2023-05-16T02:16:29;15.90;71.30
19403;DHT22;9837;48.888;8.998;2023-05-16T02:18:55;15.90;71.40
19403;DHT22;9837;48.888;8.998;2023-05-16T02:21:21;15.80;72.00
19403;DHT22;9837;48.888;8.998;2023-05-16T02:23:46;15.90;71.50
19403;DHT22;9837;48.888;8.998;2023-05-16T02:26:12;15.90;71.60
19403;DHT22;9837;48.888;8.998;2023-05-16T02:28:37;16.00;71.40
19403;DHT22;9837;48.888;8.998;2023-05-16T02:31:03;16.00;71.70
19403;DHT22;9837;48.888;8.998;2023-05-16T02:33:29;16.10;71.40
19403;DHT22;9837;48.888;8.998;2023-05-16T02:35:54;16.20;71.00
19403;DHT22;9837;48.888;8.998;2023-05-16T02:38:20;16.20;70.90
19403;DHT22;9837;48.888;8.998;2023-05-16T02:40:46;16.20;71.00
19403;DHT22;9837;48.888;8.998;2023-05-16T02:43:12;16.10;71.40
19403;DHT22;9837;48.888;8.998;2023-05-16T02:45:38;16.30;71.30
19403;DHT22;9837;48.888;8.998;2023-05-16T02:48:03;16.30;71.10
19403;DHT22;9837;48.888;8.998;2023-05-16T02:50:29;16.30;71.20
19403;DHT22;9837;48.888;8.998;2023-05-16T02:52:55;16.20;71.40
19403;DHT22;9837;48.888;8.998;2023-05-16T02:55:27;16.20;72.10
19403;DHT22;9837;48.888;8.998;2023-05-16T02:57:52;16.20;71.30
19403;DHT22;9837;48.888;8.998;2023-05-16T03:00:18;16.20;72.00
19403;DHT22;9837;48.888;8.998;2023-05-16T03:02:44;16.10;72.10
19403;DHT22;9837;48.888;8.998;2023-05-16T03:05:10;16.20;71.90
19403;DHT22;9837;48.888;8.998;2023-05-16T03:07:36;16.30;71.40
19403;DHT22;9837;48.888;8.998;2023-05-16T03:10:02;16.30;72.10
19403;DHT22;9837;48.888;8.998;2023-05-16T03:12:28;16.30;72.00
19403;DHT22;9837;48.888;8.998;2023-05-16T03:14:53;16.20;71.80
19403;DHT22;9837;48.888;8.998;2023-05-16T03:17:19;16.20;71.70
19403;DHT22;9837;48.888;8.998;2023-05-16T03:19:44;16.20;71.80
19403;DHT22;9837;48.888;8.998;2023-05-16T03:22:10;16.70;72.80
19403;DHT22;9837;48.888;8.998;2023-05-16T03:24:36;16.30;71.60
19403;DHT22;9837;48.888;8.998;2023-05-16T03:27:01;16.30;72.30
19403;DHT22;9837;48.888;8.998;2023-05-16T03:29:28;16.40;71.60
19403;DHT22;9837;48.888;8.998;2023-05-16T03:31:53;16.30;71.60
19403;DHT22;9837;48.888;8.998;2023-05-16T03:34:19;16.30;71.90
19403;DHT22;9837;48.888;8.998;2023-05-16T03:36:45;16.40;71.80
19403;DHT22;9837;48.888;8.998;2023-05-16T03:41:37;16.30;71.90
19403;DHT22;9837;48.888;8.998;2023-05-16T03:46:31;16.30;72.00
19403;DHT22;9837;48.888;8.998;2023-05-16T03:48:56;16.30;71.80
19403;DHT22;9837;48.888;8.998;2023-05-16T03:51:22;16.40;71.60
19403;DHT22;9837;48.888;8.998;2023-05-16T03:53:47;16.40;71.40
19403;DHT22;9837;48.888;8.998;2023-05-16T03:56:13;16.20;72.00
19403;DHT22;9837;48.888;8.998;2023-05-16T03:58:38;16.10;72.50
19403;DHT22;9837;48.888;8.998;2023-05-16T04:01:04;16.00;73.30
19403;DHT22;9837;48.888;8.998;2023-05-16T04:05:58;15.90;73.30
19403;DHT22;9837;48.888;8.998;2023-05-16T04:08:24;15.90;73.90
19403;DHT22;9837;48.888;8.998;2023-05-16T04:10:50;15.80;74.00
19403;DHT22;9837;48.888;8.998;2023-05-16T04:13:15;15.70;74.70
19403;DHT22;9837;48.888;8.998;2023-05-16T04:15:41;15.60;75.00
19403;DHT22;9837;48.888;8.998;2023-05-16T04:18:08;15.70;74.70
19403;DHT22;9837;48.888;8.998;2023-05-16T04:20:33;15.80;74.70
19403;DHT22;9837;48.888;8.998;2023-05-16T04:23:00;15.80;74.20
19403;DHT22;9837;48.888;8.998;2023-05-16T04:25:25;15.90;74.50
19403;DHT22;9837;48.888;8.998;2023-05-16T04:27:52;15.70;74.50
19403;DHT22;9837;48.888;8.998;2023-05-16T04:32:43;15.90;74.10
19403;DHT22;9837;48.888;8.998;2023-05-16T04:35:09;15.70;75.00
19403;DHT22;9837;48.888;8.998;2023-05-16T04:37:35;15.90;74.40
19403;DHT22;9837;48.888;8.998;2023-05-16T04:42:27;15.90;74.80
19403;DHT22;9837;48.888;8.998;2023-05-16T04:44:53;15.90;74.30
19403;DHT22;9837;48.888;8.998;2023-05-16T04:47:18;16.00;74.10
19403;DHT22;9837;48.888;8.998;2023-05-16T04:49:44;16.00;74.10
19403;DHT22;9837;48.888;8.998;2023-05-16T04:52:09;16.00;74.30
19403;DHT22;9837;48.888;8.998;2023-05-16T04:54:37;15.80;74.90
19403;DHT22;9837;48.888;8.998;2023-05-16T04:57:03;15.80;75.70
19403;DHT22;9837;48.888;8.998;2023-05-16T04:59:29;16.00;74.20
19403;DHT22;9837;48.888;8.998;2023-05-16T05:01:54;16.00;74.20
19403;DHT22;9837;48.888;8.998;2023-05-16T05:04:20;15.90;74.50
19403;DHT22;9837;48.888;8.998;2023-05-16T05:06:46;15.90;74.60
19403;DHT22;9837;48.888;8.998;2023-05-16T05:09:12;15.90;74.60
19403;DHT22;9837;48.888;8.998;2023-05-16T05:11:37;15.90;75.30
19403;DHT22;9837;48.888;8.998;2023-05-16T05:16:29;15.90;74.70
19403;DHT22;9837;48.888;8.998;2023-05-16T05:18:55;15.90;74.60
19403;DHT22;9837;48.888;8.998;2023-05-16T05:21:20;16.00;74.70
19403;DHT22;9837;48.888;8.998;2023-05-16T05:23:48;16.20;73.70
19403;DHT22;9837;48.888;8.998;2023-05-16T05:26:14;16.70;74.80
19403;DHT22;9837;48.888;8.998;2023-05-16T05:28:39;16.30;73.30
19403;DHT22;9837;48.888;8.998;2023-05-16T05:31:05;16.20;73.90
19403;DHT22;9837;48.888;8.998;2023-05-16T05:33:32;16.30;73.30
19403;DHT22;9837;48.888;8.998;2023-05-16T05:35:58;16.20;72.70
19403;DHT22;9837;48.888;8.998;2023-05-16T05:38:23;16.20;72.80
19403;DHT22;9837;48.888;8.998;2023-05-16T05:40:49;16.10;73.20
19403;DHT22;9837;48.888;8.998;2023-05-16T05:43:15;16.10;73.90
19403;DHT22;9837;48.888;8.998;2023-05-16T05:45:41;16.20;73.40
19403;DHT22;9837;48.888;8.998;2023-05-16T05:48:06;16.40;72.60
19403;DHT22;9837;48.888;8.998;2023-05-16T05:52:58;16.40;72.10
19403;DHT22;9837;48.888;8.998;2023-05-16T05:55:24;16.60;72.70
19403;DHT22;9837;48.888;8.998;2023-05-16T05:57:49;16.80;71.10
19403;DHT22;9837;48.888;8.998;2023-05-16T06:00:15;16.90;70.90
19403;DHT22;9837;48.888;8.998;2023-05-16T06:02:41;16.90;71.60
19403;DHT22;9837;48.888;8.998;2023-05-16T06:05:07;16.30;71.90
19403;DHT22;9837;48.888;8.998;2023-05-16T06:07:33;16.00;73.60
19403;DHT22;9837;48.888;8.998;2023-05-16T06:09:58;16.00;74.10
19403;DHT22;9837;48.888;8.998;2023-05-16T06:12:28;16.10;73.80
19403;DHT22;9837;48.888;8.998;2023-05-16T06:14:54;16.10;74.40
19403;DHT22;9837;48.888;8.998;2023-05-16T06:17:20;16.20;74.30
19403;DHT22;9837;48.888;8.998;2023-05-16T06:22:11;16.10;72.90
19403;DHT22;9837;48.888;8.998;2023-05-16T06:24:37;16.00;73.90
19403;DHT22;9837;48.888;8.998;2023-05-16T06:27:02;16.10;74.30
19403;DHT22;9837;48.888;8.998;2023-05-16T06:29:28;16.00;74.20
19403;DHT22;9837;48.888;8.998;2023-05-16T06:31:53;16.00;74.90
19403;DHT22;9837;48.888;8.998;2023-05-16T06:34:19;16.40;73.30
19403;DHT22;9837;48.888;8.998;2023-05-16T06:36:48;16.50;72.30
19403;DHT22;9837;48.888;8.998;2023-05-16T06:39:13;16.50;71.80
19403;DHT22;9837;48.888;8.998;2023-05-16T06:41:39;16.20;72.30
19403;DHT22;9837;48.888;8.998;2023-05-16T06:44:04;16.00;73.60
19403;DHT22;9837;48.888;8.998;2023-05-16T06:46:30;16.00;74.30
19403;DHT22;9837;48.888;8.998;2023-05-16T06:48:56;15.80;75.70
19403;DHT22;9837;48.888;8.998;2023-05-16T06:51:21;15.80;76.40
19403;DHT22;9837;48.888;8.998;2023-05-16T06:53:47;15.80;75.10
19403;DHT22;9837;48.888;8.998;2023-05-16T06:56:13;15.60;75.80
19403;DHT22;9837;48.888;8.998;2023-05-16T06:58:38;15.80;76.00
19403;DHT22;9837;48.888;8.998;2023-05-16T07:01:03;15.80;76.60
19403;DHT22;9837;48.888;8.998;2023-05-16T07:03:29;16.10;74.60
19403;DHT22;9837;48.888;8.998;2023-05-16T07:05:56;16.30;75.30
19403;DHT22;9837;48.888;8.998;2023-05-16T07:08:23;15.90;75.70
19403;DHT22;9837;48.888;8.998;2023-05-16T07:10:49;15.90;76.10
19403;DHT22;9837;48.888;8.998;2023-05-16T07:13:15;15.80;76.10
19403;DHT22;9837;48.888;8.998;2023-05-16T07:15:40;15.70;76.10
19403;DHT22;9837;48.888;8.998;2023-05-16T07:18:06;15.80;76.20
19403;DHT22;9837;48.888;8.998;2023-05-16T07:20:31;15.70;76.80
19403;DHT22;9837;48.888;8.998;2023-05-16T07:22:57;15.80;76.10
19403;DHT22;9837;48.888;8.998;2023-05-16T07:25:24;15.90;76.10
19403;DHT22;9837;48.888;8.998;2023-05-16T07:27:50;16.00;75.50
19403;DHT22;9837;48.888;8.998;2023-05-16T07:30:15;16.00;76.30
19403;DHT22;9837;48.888;8.998;2023-05-16T07:32:41;16.40;75.40
19403;DHT22;9837;48.888;8.998;2023-05-16T07:35:08;16.50;73.70
19403;DHT22;9837;48.888;8.998;2023-05-16T07:37:34;16.60;72.70
19403;DHT22;9837;48.888;8.998;2023-05-16T07:40:00;16.70;72.40
19403;DHT22;9837;48.888;8.998;2023-05-16T07:42:26;16.80;71.70
19403;DHT22;9837;48.888;8.998;2023-05-16T07:44:51;16.90;71.60
19403;DHT22;9837;48.888;8.998;2023-05-16T07:47:17;16.80;70.60
19403;DHT22;9837;48.888;8.998;2023-05-16T07:49:42;16.80;71.30
19403;DHT22;9837;48.888;8.998;2023-05-16T07:52:08;16.70;72.00
19403;DHT22;9837;48.888;8.998;2023-05-16T07:54:34;16.90;70.80
19403;DHT22;9837;48.888;8.998;2023-05-16T07:57:00;16.70;71.60
19403;DHT22;9837;48.888;8.998;2023-05-16T07:59:26;17.00;72.50
19403;DHT22;9837;48.888;8.998;2023-05-16T08:01:52;16.30;72.30
19403;DHT22;9837;48.888;8.998;2023-05-16T08:04:18;15.90;74.10
19403;DHT22;9837;48.888;8.998;2023-05-16T08:06:44;15.90;74.80
19403;DHT22;9837;48.888;8.998;2023-05-16T08:09:10;15.90;74.80
19403;DHT22;9837;48.888;8.998;2023-05-16T08:11:35;15.90;75.50
19403;DHT22;9837;48.888;8.998;2023-05-16T08:14:02;16.10;74.60
19403;DHT22;9837;48.888;8.998;2023-05-16T08:16:27;16.60;75.60
19403;DHT22;9837;48.888;8.998;2023-05-16T08:18:53;16.00;74.40
19403;DHT22;9837;48.888;8.998;2023-05-16T08:21:19;16.00;75.10
19403;DHT22;9837;48.888;8.998;2023-05-16T08:23:44;16.10;74.90
19403;DHT22;9837;48.888;8.998;2023-05-16T08:26:10;16.00;74.20
19403;DHT22;9837;48.888;8.998;2023-05-16T08:28:36;16.00;74.90
19403;DHT22;9837;48.888;8.998;2023-05-16T08:31:01;15.90;74.90
19403;DHT22;9837;48.888;8.998;2023-05-16T08:33:27;15.90;75.60
19403;DHT22;9837;48.888;8.998;2023-05-16T08:35:52;16.10;73.90
19403;DHT22;9837;48.888;8.998;2023-05-16T08:38:18;16.20;74.60
19403;DHT22;9837;48.888;8.998;2023-05-16T08:40:44;16.60;73.80
19403;DHT22;9837;48.888;8.998;2023-05-16T08:43:10;16.60;74.40
19403;DHT22;9837;48.888;8.998;2023-05-16T08:45:36;16.80;72.60
19403;DHT22;9837;48.888;8.998;2023-05-16T08:48:02;16.60;72.00
19403;DHT22;9837;48.888;8.998;2023-05-16T08:50:30;16.40;72.50
19403;DHT22;9837;48.888;8.998;2023-05-16T08:52:56;16.40;73.30
19403;DHT22;9837;48.888;8.998;2023-05-16T08:55:23;16.40;73.80
19403;DHT22;9837;48.888;8.998;2023-05-16T08:57:50;16.60;73.20
19403;DHT22;9837;48.888;8.998;2023-05-16T09:00:17;16.70;73.90
19403;DHT22;9837;48.888;8.998;2023-05-16T09:02:44;16.70;71.80
19403;DHT22;9837;48.888;8.998;2023-05-16T09:05:12;16.70;72.20
19403;DHT22;9837;48.888;8.998;2023-05-16T09:07:39;16.70;73.30
19403;DHT22;9837;48.888;8.998;2023-05-16T09:10:08;16.80;72.90
19403;DHT22;9837;48.888;8.998;2023-05-16T09:12:34;17.10;72.40
19403;DHT22;9837;48.888;8.998;2023-05-16T09:15:04;17.70;69.00
19403;DHT22;9837;48.888;8.998;2023-05-16T09:17:35;17.80;69.70
19403;DHT22;9837;48.888;8.998;2023-05-16T09:20:11;17.50;68.60
19403;DHT22;9837;48.888;8.998;2023-05-16T09:22:37;17.50;69.60
19403;DHT22;9837;48.888;8.998;2023-05-16T09:25:03;17.50;70.30
19403;DHT22;9837;48.888;8.998;2023-05-16T09:27:32;17.50;70.30
19403;DHT22;9837;48.888;8.998;2023-05-16T09:29:58;17.50;70.00
19403;DHT22;9837;48.888;8.998;2023-05-16T09:32:24;17.50;69.90
19403;DHT22;9837;48.888;8.998;2023-05-16T09:34:53;17.40;69.70
19403;DHT22;9837;48.888;8.998;2023-05-16T09:37:19;17.10;70.10
19403;DHT22;9837;48.888;8.998;2023-05-16T09:39:46;16.90;70.70
19403;DHT22;9837;48.888;8.998;2023-05-16T09:42:13;17.00;71.10
19403;DHT22;9837;48.888;8.998;2023-05-16T09:44:39;17.20;70.30
19403;DHT22;9837;48.888;8.998;2023-05-16T09:47:05;17.40;70.10
19403;DHT22;9837;48.888;8.998;2023-05-16T09:49:30;17.40;70.10
19403;DHT22;9837;48.888;8.998;2023-05-16T09:52:00;17.60;69.20
19403;DHT22;9837;48.888;8.998;2023-05-16T09:54:33;17.70;68.10
19403;DHT22;9837;48.888;8.998;2023-05-16T09:56:59;17.70;68.90
19403;DHT22;9837;48.888;8.998;2023-05-16T09:59:27;17.70;67.80
19403;DHT22;9837;48.888;8.998;2023-05-16T10:01:53;17.50;67.00
19403;DHT22;9837;48.888;8.998;2023-05-16T10:04:20;17.50;67.80
19403;DHT22;9837;48.888;8.998;2023-05-16T10:06:47;17.80;67.00
19403;DHT22;9837;48.888;8.998;2023-05-16T10:09:15;17.70;67.40
19403;DHT22;9837;48.888;8.998;2023-05-16T10:11:42;17.60;67.80
19403;DHT22;9837;48.888;8.998;2023-05-16T10:14:10;17.60;67.10
19403;DHT22;9837;48.888;8.998;2023-05-16T10:16:37;17.50;67.40
19403;DHT22;9837;48.888;8.998;2023-05-16T10:19:06;17.60;67.00
19403;DHT22;9837;48.888;8.998;2023-05-16T10:21:31;17.60;67.40
19403;DHT22;9837;48.888;8.998;2023-05-16T10:24:01;17.50;66.70
19403;DHT22;9837;48.888;8.998;2023-05-16T10:26:28;17.60;67.30
19403;DHT22;9837;48.888;8.998;2023-05-16T10:28:54;17.70;67.90
19403;DHT22;9837;48.888;8.998;2023-05-16T10:31:20;17.60;66.50
19403;DHT22;9837;48.888;8.998;2023-05-16T10:33:47;17.20;68.10
19403;DHT22;9837;48.888;8.998;2023-05-16T10:36:13;17.10;67.90
19403;DHT22;9837;48.888;8.998;2023-05-16T10:38:40;17.10;68.70
19403;DHT22;9837;48.888;8.998;2023-05-16T10:41:06;16.40;71.20
19403;DHT22;9837;48.888;8.998;2023-05-16T10:43:32;16.50;71.20
19403;DHT22;9837;48.888;8.998;2023-05-16T10:46:06;16.50;71.90
19403;DHT22;9837;48.888;8.998;2023-05-16T10:48:35;16.60;71.30
19403;DHT22;9837;48.888;8.998;2023-05-16T10:51:02;16.50;71.50
19403;DHT22;9837;48.888;8.998;2023-05-16T11:09:04;16.00;70.50
19403;DHT22;9837;48.888;8.998;2023-05-16T11:11:59;15.60;71.80
19403;DHT22;9837;48.888;8.998;2023-05-16T11:17:14;16.20;70.80
19403;DHT22;9837;48.888;8.998;2023-05-16T11:19:45;16.10;70.80
19403;DHT22;9837;48.888;8.998;2023-05-16T11:22:32;16.10;71.60
19403;DHT22;9837;48.888;8.998;2023-05-16T11:25:06;16.10;71.10
19403;DHT22;9837;48.888;8.998;2023-05-16T11:27:43;15.90;71.50
19403;DHT22;9837;48.888;8.998;2023-05-16T11:32:35;15.90;70.00
19403;DHT22;9837;48.888;8.998;2023-05-16T11:37:28;16.10;68.40
19403;DHT22;9837;48.888;8.998;2023-05-16T11:40:07;16.10;69.20
19403;DHT22;9837;48.888;8.998;2023-05-16T11:42:35;16.40;68.80
19403;DHT22;9837;48.888;8.998;2023-05-16T11:45:11;16.50;69.40
19403;DHT22;9837;48.888;8.998;2023-05-16T11:47:40;17.00;66.40
19403;DHT22;9837;48.888;8.998;2023-05-16T11:50:13;17.00;67.10
19403;DHT22;9837;48.888;8.998;2023-05-16T11:52:43;17.50;64.20
19403;DHT22;9837;48.888;8.998;2023-05-16T11:55:10;17.40;64.70
19403;DHT22;9837;48.888;8.998;2023-05-16T11:57:37;17.20;64.90
19403;DHT22;9837;48.888;8.998;2023-05-16T12:00:17;16.90;65.30
19403;DHT22;9837;48.888;8.998;2023-05-16T12:02:44;16.70;66.20
19403;DHT22;9837;48.888;8.998;2023-05-16T12:05:12;16.50;67.00
19403;DHT22;9837;48.888;8.998;2023-05-16T12:07:37;16.10;67.40
19403;DHT22;9837;48.888;8.998;2023-05-16T12:10:07;16.50;66.90
19403;DHT22;9837;48.888;8.998;2023-05-16T12:12:34;16.50;67.60
19403;DHT22;9837;48.888;8.998;2023-05-16T12:15:01;16.40;66.20
19403;DHT22;9837;48.888;8.998;2023-05-16T12:17:27;16.10;66.40
19403;DHT22;9837;48.888;8.998;2023-05-16T12:19:52;15.70;68.30
19403;DHT22;9837;48.888;8.998;2023-05-16T12:22:21;15.50;69.70
19403;DHT22;9837;48.888;8.998;2023-05-16T12:24:47;15.50;69.60
19403;DHT22;9837;48.888;8.998;2023-05-16T12:27:21;15.40;69.30
19403;DHT22;9837;48.888;8.998;2023-05-16T12:29:47;15.30;71.00
19403;DHT22;9837;48.888;8.998;2023-05-16T12:32:17;15.00;69.80
19403;DHT22;9837;48.888;8.998;2023-05-16T12:34:48;14.80;69.40
19403;DHT22;9837;48.888;8.998;2023-05-16T12:37:15;14.80;70.00
19403;DHT22;9837;48.888;8.998;2023-05-16T12:39:40;14.40;71.30
19403;DHT22;9837;48.888;8.998;2023-05-16T12:42:06;14.40;72.10
19403;DHT22;9837;48.888;8.998;2023-05-16T12:44:34;14.70;69.70
19403;DHT22;9837;48.888;8.998;2023-05-16T12:47:01;14.70;69.30
19403;DHT22;9837;48.888;8.998;2023-05-16T12:49:27;15.20;68.80
19403;DHT22;9837;48.888;8.998;2023-05-16T12:51:54;15.20;69.20
19403;DHT22;9837;48.888;8.998;2023-05-16T12:54:20;15.70;65.50
19403;DHT22;9837;48.888;8.998;2023-05-16T12:56:47;15.70;66.10
19403;DHT22;9837;48.888;8.998;2023-05-16T12:59:13;15.60;65.10
19403;DHT22;9837;48.888;8.998;2023-05-16T13:01:39;15.60;65.80
19403;DHT22;9837;48.888;8.998;2023-05-16T13:04:05;16.30;63.10
19403;DHT22;9837;48.888;8.998;2023-05-16T13:06:31;16.30;63.80
19403;DHT22;9837;48.888;8.998;2023-05-16T13:08:57;16.60;63.70
19403;DHT22;9837;48.888;8.998;2023-05-16T13:11:23;16.00;63.20
19403;DHT22;9837;48.888;8.998;2023-05-16T13:13:49;15.80;63.00
19403;DHT22;9837;48.888;8.998;2023-05-16T13:16:14;15.40;65.30
19403;DHT22;9837;48.888;8.998;2023-05-16T13:18:40;15.70;65.10
19403;DHT22;9837;48.888;8.998;2023-05-16T13:21:06;16.10;63.50
19403;DHT22;9837;48.888;8.998;2023-05-16T13:23:31;16.00;64.10
19403;DHT22;9837;48.888;8.998;2023-05-16T13:25:57;15.80;64.20
19403;DHT22;9837;48.888;8.998;2023-05-16T13:28:23;15.90;63.70
19403;DHT22;9837;48.888;8.998;2023-05-16T13:30:49;15.90;64.30
19403;DHT22;9837;48.888;8.998;2023-05-16T13:33:16;16.10;63.90
19403;DHT22;9837;48.888;8.998;2023-05-16T13:35:42;16.80;61.00
19403;DHT22;9837;48.888;8.998;2023-05-16T13:38:08;16.80;61.80
19403;DHT22;9837;48.888;8.998;2023-05-16T13:40:33;17.30;59.20
19403;DHT22;9837;48.888;8.998;2023-05-16T13:42:59;17.10;59.10
19403;DHT22;9837;48.888;8.998;2023-05-16T13:45:26;17.20;59.70
19403;DHT22;9837;48.888;8.998;2023-05-16T13:47:51;17.30;58.10
19403;DHT22;9837;48.888;8.998;2023-05-16T13:50:17;17.30;58.60
19403;DHT22;9837;48.888;8.998;2023-05-16T13:52:42;17.20;57.80
19403;DHT22;9837;48.888;8.998;2023-05-16T13:55:08;17.20;57.60
19403;DHT22;9837;48.888;8.998;2023-05-16T13:57:34;17.40;57.30
19403;DHT22;9837;48.888;8.998;2023-05-16T14:00:00;17.60;56.20
19403;DHT22;9837;48.888;8.998;2023-05-16T14:02:26;17.60;56.70
19403;DHT22;9837;48.888;8.998;2023-05-16T14:04:52;17.20;58.00
19403;DHT22;9837;48.888;8.998;2023-05-16T14:07:18;17.10;57.50
19403;DHT22;9837;48.888;8.998;2023-05-16T14:09:43;16.80;57.60
19403;DHT22;9837;48.888;8.998;2023-05-16T14:12:10;16.80;57.90
19403;DHT22;9837;48.888;8.998;2023-05-16T14:14:36;17.10;56.50
19403;DHT22;9837;48.888;8.998;2023-05-16T14:17:02;16.60;56.70
19403;DHT22;9837;48.888;8.998;2023-05-16T14:21:54;16.20;56.50
19403;DHT22;9837;48.888;8.998;2023-05-16T14:24:20;16.40;57.40
19403;DHT22;9837;48.888;8.998;2023-05-16T14:26:45;16.40;57.90
19403;DHT22;9837;48.888;8.998;2023-05-16T14:29:11;16.70;56.80
19403;DHT22;9837;48.888;8.998;2023-05-16T14:31:38;16.70;57.30
19403;DHT22;9837;48.888;8.998;2023-05-16T14:34:03;16.70;56.50
19403;DHT22;9837;48.888;8.998;2023-05-16T14:36:29;16.70;58.20
19403;DHT22;9837;48.888;8.998;2023-05-16T14:38:56;16.70;58.80
19403;DHT22;9837;48.888;8.998;2023-05-16T14:41:21;16.80;60.00
19403;DHT22;9837;48.888;8.998;2023-05-16T14:43:47;16.80;59.80
19403;DHT22;9837;48.888;8.998;2023-05-16T14:46:12;16.70;60.30
19403;DHT22;9837;48.888;8.998;2023-05-16T14:48:38;16.70;61.00
19403;DHT22;9837;48.888;8.998;2023-05-16T14:51:04;17.10;59.50
19403;DHT22;9837;48.888;8.998;2023-05-16T14:53:30;17.10;59.00
19403;DHT22;9837;48.888;8.998;2023-05-16T14:55:56;16.80;59.70
19403;DHT22;9837;48.888;8.998;2023-05-16T14:58:21;17.00;59.40
19403;DHT22;9837;48.888;8.998;2023-05-16T15:00:48;17.10;59.70
19403;DHT22;9837;48.888;8.998;2023-05-16T15:03:15;17.30;58.00
19403;DHT22;9837;48.888;8.998;2023-05-16T15:05:41;17.30;58.10
19403;DHT22;9837;48.888;8.998;2023-05-16T15:08:06;17.30;58.60
19403;DHT22;9837;48.888;8.998;2023-05-16T15:10:32;18.90;59.30
19403;DHT22;9837;48.888;8.998;2023-05-16T15:12:57;16.50;59.40
19403;DHT22;9837;48.888;8.998;2023-05-16T15:15:23;16.50;60.00
19403;DHT22;9837;48.888;8.998;2023-05-16T15:17:48;16.70;59.70
19403;DHT22;9837;48.888;8.998;2023-05-16T15:20:14;17.00;58.60
19403;DHT22;9837;48.888;8.998;2023-05-16T15:22:40;17.00;58.80
19403;DHT22;9837;48.888;8.998;2023-05-16T15:25:06;17.10;58.80
19403;DHT22;9837;48.888;8.998;2023-05-16T15:29:59;16.90;58.40
19403;DHT22;9837;48.888;8.998;2023-05-16T15:32:25;17.00;57.30
19403;DHT22;9837;48.888;8.998;2023-05-16T15:34:50;17.00;57.90
19403;DHT22;9837;48.888;8.998;2023-05-16T15:37:16;17.10;57.30
19403;DHT22;9837;48.888;8.998;2023-05-16T15:39:42;17.20;55.80
19403;DHT22;9837;48.888;8.998;2023-05-16T15:42:07;17.30;54.90
19403;DHT22;9837;48.888;8.998;2023-05-16T15:44:33;17.10;55.00
19403;DHT22;9837;48.888;8.998;2023-05-16T15:46:59;17.10;55.00
19403;DHT22;9837;48.888;8.998;2023-05-16T15:49:25;17.10;55.40
19403;DHT22;9837;48.888;8.998;2023-05-16T15:51:52;16.50;56.00
19403;DHT22;9837;48.888;8.998;2023-05-16T15:54:18;16.60;55.10
19403;DHT22;9837;48.888;8.998;2023-05-16T15:56:43;16.70;55.30
19403;DHT22;9837;48.888;8.998;2023-05-16T15:59:09;16.40;55.20
19403;DHT22;9837;48.888;8.998;2023-05-16T16:01:34;16.40;56.70
19403;DHT22;9837;48.888;8.998;2023-05-16T16:04:00;16.30;55.00
19403;DHT22;9837;48.888;8.998;2023-05-16T16:06:25;16.30;55.60
19403;DHT22;9837;48.888;8.998;2023-05-16T16:08:51;17.10;53.30
19403;DHT22;9837;48.888;8.998;2023-05-16T16:11:18;16.90;53.50
19403;DHT22;9837;48.888;8.998;2023-05-16T16:13:44;17.10;53.10
19403;DHT22;9837;48.888;8.998;2023-05-16T16:16:09;17.10;52.60
19403;DHT22;9837;48.888;8.998;2023-05-16T16:18:35;17.00;52.30
19403;DHT22;9837;48.888;8.998;2023-05-16T16:23:27;16.80;53.10
19403;DHT22;9837;48.888;8.998;2023-05-16T16:25:52;16.80;53.70
19403;DHT22;9837;48.888;8.998;2023-05-16T16:28:18;16.70;53.10
19403;DHT22;9837;48.888;8.998;2023-05-16T16:30:43;16.60;52.30
19403;DHT22;9837;48.888;8.998;2023-05-16T16:33:11;16.30;53.40
19403;DHT22;9837;48.888;8.998;2023-05-16T16:35:37;16.30;53.40
19403;DHT22;9837;48.888;8.998;2023-05-16T16:38:02;16.40;52.20
19403;DHT22;9837;48.888;8.998;2023-05-16T16:40:28;16.40;52.30
19403;DHT22;9837;48.888;8.998;2023-05-16T16:42:53;16.40;52.20
19403;DHT22;9837;48.888;8.998;2023-05-16T16:45:19;16.40;52.00